Terminal Aerodrome Forecast
Issued by NWS Sioux Falls, SD

Home | Current Version | Previous Version | Text Only | Print | Product List | Glossary Off
Versions: 1 2 3 4 5 6 7 8 9 10 11 12

000
FTUS43 KFSD 272322
TAFHON
TAF
KHON 272322Z 2800/2824 22006KT P6SM FEW050
     FM280200 14004KT P6SM FEW250
     FM281400 17008KT P6SM FEW150
     FM281800 18012KT P6SM FEW200=

USA.gov is the U.S. government's official web portal to all federal, state and local government web resources and services.